sensor_id;sensor_type;location;lat;lon;timestamp;temperature;humidity
2973;DHT22;1496;51.404;7.232;2023-04-01T00:01:56;9.00;99.90
2973;DHT22;1496;51.404;7.232;2023-04-01T00:04:23;8.90;99.90
2973;DHT22;1496;51.404;7.232;2023-04-01T00:06:51;9.00;99.90
2973;DHT22;1496;51.404;7.232;2023-04-01T00:09:19;8.90;99.90
2973;DHT22;1496;51.404;7.232;2023-04-01T00:11:45;8.90;99.90
2973;DHT22;1496;51.404;7.232;2023-04-01T00:14:12;8.90;99.90
2973;DHT22;1496;51.404;7.232;2023-04-01T00:16:39;8.90;99.90
2973;DHT22;1496;51.404;7.232;2023-04-01T00:19:06;8.90;99.90
2973;DHT22;1496;51.404;7.232;2023-04-01T00:21:34;9.00;99.90
2973;DHT22;1496;51.404;7.232;2023-04-01T00:24:03;9.00;99.90
2973;DHT22;1496;51.404;7.232;2023-04-01T00:26:32;8.90;99.90
2973;DHT22;1496;51.404;7.232;2023-04-01T00:29:00;9.00;99.90
2973;DHT22;1496;51.404;7.232;2023-04-01T00:31:27;8.90;99.90
2973;DHT22;1496;51.404;7.232;2023-04-01T00:33:55;9.00;99.90
2973;DHT22;1496;51.404;7.232;2023-04-01T00:36:22;8.90;99.90
2973;DHT22;1496;51.404;7.232;2023-04-01T00:38:50;9.00;99.90
2973;DHT22;1496;51.404;7.232;2023-04-01T00:41:19;8.90;99.90
2973;DHT22;1496;51.404;7.232;2023-04-01T00:43:47;8.90;99.90
2973;DHT22;1496;51.404;7.232;2023-04-01T00:46:14;8.90;99.90
2973;DHT22;1496;51.404;7.232;2023-04-01T00:48:47;8.90;99.90
2973;DHT22;1496;51.404;7.232;2023-04-01T00:51:21;8.90;99.90
2973;DHT22;1496;51.404;7.232;2023-04-01T00:53:52;8.90;99.90
2973;DHT22;1496;51.404;7.232;2023-04-01T00:56:36;8.80;99.90
2973;DHT22;1496;51.404;7.232;2023-04-01T00:59:25;8.80;99.90
2973;DHT22;1496;51.404;7.232;2023-04-01T01:01:53;8.90;99.90
2973;DHT22;1496;51.404;7.232;2023-04-01T01:04:30;8.90;99.90
2973;DHT22;1496;51.404;7.232;2023-04-01T01:10:28;8.80;99.90
2973;DHT22;1496;51.404;7.232;2023-04-01T01:13:24;8.80;99.90
2973;DHT22;1496;51.404;7.232;2023-04-01T01:15:59;8.80;99.90
2973;DHT22;1496;51.404;7.232;2023-04-01T01:18:38;8.80;99.90
2973;DHT22;1496;51.404;7.232;2023-04-01T01:27:28;8.80;99.90
2973;DHT22;1496;51.404;7.232;2023-04-01T01:36:19;8.80;99.90
2973;DHT22;1496;51.404;7.232;2023-04-01T01:38:48;8.80;99.90
2973;DHT22;1496;51.404;7.232;2023-04-01T01:41:18;8.80;99.90
2973;DHT22;1496;51.404;7.232;2023-04-01T01:43:50;8.70;99.90
2973;DHT22;1496;51.404;7.232;2023-04-01T01:46:22;8.80;99.90
2973;DHT22;1496;51.404;7.232;2023-04-01T01:48:51;8.80;99.90
2973;DHT22;1496;51.404;7.232;2023-04-01T01:51:21;8.80;99.90
2973;DHT22;1496;51.404;7.232;2023-04-01T01:53:54;8.80;99.90
2973;DHT22;1496;51.404;7.232;2023-04-01T01:56:26;8.80;99.90
2973;DHT22;1496;51.404;7.232;2023-04-01T01:59:03;8.80;99.90
2973;DHT22;1496;51.404;7.232;2023-04-01T02:01:35;8.80;99.90
2973;DHT22;1496;51.404;7.232;2023-04-01T02:04:12;8.70;99.90
2973;DHT22;1496;51.404;7.232;2023-04-01T02:07:03;8.80;99.90
2973;DHT22;1496;51.404;7.232;2023-04-01T02:09:32;8.80;99.90
2973;DHT22;1496;51.404;7.232;2023-04-01T02:12:09;8.80;99.90
2973;DHT22;1496;51.404;7.232;2023-04-01T02:14:49;8.80;99.90
2973;DHT22;1496;51.404;7.232;2023-04-01T02:17:20;8.80;99.90
2973;DHT22;1496;51.404;7.232;2023-04-01T02:20:14;8.70;99.90
2973;DHT22;1496;51.404;7.232;2023-04-01T02:22:54;8.70;99.90
2973;DHT22;1496;51.404;7.232;2023-04-01T02:25:26;8.70;99.90
2973;DHT22;1496;51.404;7.232;2023-04-01T02:27:55;8.80;99.90
2973;DHT22;1496;51.404;7.232;2023-04-01T02:30:29;8.80;99.90
2973;DHT22;1496;51.404;7.232;2023-04-01T02:32:57;8.70;99.90
2973;DHT22;1496;51.404;7.232;2023-04-01T02:35:25;8.70;99.90
2973;DHT22;1496;51.404;7.232;2023-04-01T02:37:54;8.70;99.90
2973;DHT22;1496;51.404;7.232;2023-04-01T02:40:23;8.70;99.90
2973;DHT22;1496;51.404;7.232;2023-04-01T02:42:50;8.70;99.90
2973;DHT22;1496;51.404;7.232;2023-04-01T02:45:17;8.70;99.90
2973;DHT22;1496;51.404;7.232;2023-04-01T02:47:45;8.70;99.90
2973;DHT22;1496;51.404;7.232;2023-04-01T02:50:14;8.70;99.90
2973;DHT22;1496;51.404;7.232;2023-04-01T02:52:42;8.70;99.90
2973;DHT22;1496;51.404;7.232;2023-04-01T02:55:11;8.70;99.90
2973;DHT22;1496;51.404;7.232;2023-04-01T02:57:37;8.70;99.90
2973;DHT22;1496;51.404;7.232;2023-04-01T03:00:05;8.70;99.90
2973;DHT22;1496;51.404;7.232;2023-04-01T03:02:38;8.70;99.90
2973;DHT22;1496;51.404;7.232;2023-04-01T03:05:07;8.70;99.90
2973;DHT22;1496;51.404;7.232;2023-04-01T03:07:35;8.60;99.90
2973;DHT22;1496;51.404;7.232;2023-04-01T03:10:01;8.60;99.90
2973;DHT22;1496;51.404;7.232;2023-04-01T03:12:28;8.60;99.90
2973;DHT22;1496;51.404;7.232;2023-04-01T03:14:56;8.60;99.90
2973;DHT22;1496;51.404;7.232;2023-04-01T03:17:24;8.60;99.90
2973;DHT22;1496;51.404;7.232;2023-04-01T03:19:50;8.60;99.90
2973;DHT22;1496;51.404;7.232;2023-04-01T03:22:26;8.60;99.90
2973;DHT22;1496;51.404;7.232;2023-04-01T03:24:54;8.60;99.90
2973;DHT22;1496;51.404;7.232;2023-04-01T03:27:21;8.60;99.90
2973;DHT22;1496;51.404;7.232;2023-04-01T03:29:50;8.60;99.90
2973;DHT22;1496;51.404;7.232;2023-04-01T03:32:17;8.60;99.90
2973;DHT22;1496;51.404;7.232;2023-04-01T03:34:44;8.60;99.90
2973;DHT22;1496;51.404;7.232;2023-04-01T03:37:12;8.60;99.90
2973;DHT22;1496;51.404;7.232;2023-04-01T03:39:39;8.60;99.90
2973;DHT22;1496;51.404;7.232;2023-04-01T03:42:06;8.60;99.90
2973;DHT22;1496;51.404;7.232;2023-04-01T03:44:34;8.60;99.90
2973;DHT22;1496;51.404;7.232;2023-04-01T03:47:00;8.50;99.90
2973;DHT22;1496;51.404;7.232;2023-04-01T03:49:28;8.60;99.90
2973;DHT22;1496;51.404;7.232;2023-04-01T03:51:56;8.60;99.90
2973;DHT22;1496;51.404;7.232;2023-04-01T03:54:24;8.60;99.90
2973;DHT22;1496;51.404;7.232;2023-04-01T03:56:50;8.50;99.90
2973;DHT22;1496;51.404;7.232;2023-04-01T03:59:17;8.50;99.90
2973;DHT22;1496;51.404;7.232;2023-04-01T04:01:47;8.50;99.90
2973;DHT22;1496;51.404;7.232;2023-04-01T04:04:14;8.50;99.90
2973;DHT22;1496;51.404;7.232;2023-04-01T04:06:42;8.60;99.90
2973;DHT22;1496;51.404;7.232;2023-04-01T04:09:09;8.60;99.90
2973;DHT22;1496;51.404;7.232;2023-04-01T04:11:38;8.50;99.90
2973;DHT22;1496;51.404;7.232;2023-04-01T04:14:05;8.60;99.90
2973;DHT22;1496;51.404;7.232;2023-04-01T04:16:31;8.60;99.90
2973;DHT22;1496;51.404;7.232;2023-04-01T04:19:03;8.60;99.90
2973;DHT22;1496;51.404;7.232;2023-04-01T04:21:32;8.60;99.90
2973;DHT22;1496;51.404;7.232;2023-04-01T04:24:00;8.60;99.90
2973;DHT22;1496;51.404;7.232;2023-04-01T04:26:28;8.60;99.90
2973;DHT22;1496;51.404;7.232;2023-04-01T04:29:00;8.60;99.90
2973;DHT22;1496;51.404;7.232;2023-04-01T04:31:27;8.60;99.90
2973;DHT22;1496;51.404;7.232;2023-04-01T04:33:59;8.60;99.90
2973;DHT22;1496;51.404;7.232;2023-04-01T04:36:28;8.60;99.90
2973;DHT22;1496;51.404;7.232;2023-04-01T04:38:55;8.60;99.90
2973;DHT22;1496;51.404;7.232;2023-04-01T04:41:25;8.60;99.90
2973;DHT22;1496;51.404;7.232;2023-04-01T04:43:55;8.60;99.90
2973;DHT22;1496;51.404;7.232;2023-04-01T04:46:23;8.60;99.90
2973;DHT22;1496;51.404;7.232;2023-04-01T04:48:57;8.60;99.90
2973;DHT22;1496;51.404;7.232;2023-04-01T04:51:25;8.60;99.90
2973;DHT22;1496;51.404;7.232;2023-04-01T04:53:52;8.60;99.90
2973;DHT22;1496;51.404;7.232;2023-04-01T04:56:28;8.60;99.90
2973;DHT22;1496;51.404;7.232;2023-04-01T04:59:03;8.70;99.90
2973;DHT22;1496;51.404;7.232;2023-04-01T05:01:40;8.70;99.90
2973;DHT22;1496;51.404;7.232;2023-04-01T05:04:07;8.70;99.90
2973;DHT22;1496;51.404;7.232;2023-04-01T05:06:34;8.70;99.90
2973;DHT22;1496;51.404;7.232;2023-04-01T05:09:02;8.70;99.90
2973;DHT22;1496;51.404;7.232;2023-04-01T05:11:29;8.60;99.90
2973;DHT22;1496;51.404;7.232;2023-04-01T05:13:58;8.60;99.90
2973;DHT22;1496;51.404;7.232;2023-04-01T05:16:27;8.70;99.90
2973;DHT22;1496;51.404;7.232;2023-04-01T05:18:54;8.70;99.90
2973;DHT22;1496;51.404;7.232;2023-04-01T05:21:23;8.70;99.90
2973;DHT22;1496;51.404;7.232;2023-04-01T05:23:53;8.70;99.90
2973;DHT22;1496;51.404;7.232;2023-04-01T05:26:20;8.70;99.90
2973;DHT22;1496;51.404;7.232;2023-04-01T05:28:48;8.70;99.90
2973;DHT22;1496;51.404;7.232;2023-04-01T05:31:15;8.70;99.90
2973;DHT22;1496;51.404;7.232;2023-04-01T05:33:45;8.70;99.90
2973;DHT22;1496;51.404;7.232;2023-04-01T05:36:15;8.70;99.90
2973;DHT22;1496;51.404;7.232;2023-04-01T05:38:43;8.70;99.90
2973;DHT22;1496;51.404;7.232;2023-04-01T05:41:14;8.70;99.90
2973;DHT22;1496;51.404;7.232;2023-04-01T05:43:45;8.70;99.90
2973;DHT22;1496;51.404;7.232;2023-04-01T05:46:32;8.70;99.90
2973;DHT22;1496;51.404;7.232;2023-04-01T05:49:21;8.70;99.90
2973;DHT22;1496;51.404;7.232;2023-04-01T05:51:49;8.80;99.90
2973;DHT22;1496;51.404;7.232;2023-04-01T05:54:19;8.80;99.90
2973;DHT22;1496;51.404;7.232;2023-04-01T05:56:46;8.80;99.90
2973;DHT22;1496;51.404;7.232;2023-04-01T05:59:13;8.80;99.90
2973;DHT22;1496;51.404;7.232;2023-04-01T06:01:41;8.80;99.90
2973;DHT22;1496;51.404;7.232;2023-04-01T06:04:15;8.80;99.90
2973;DHT22;1496;51.404;7.232;2023-04-01T06:06:43;8.80;99.90
2973;DHT22;1496;51.404;7.232;2023-04-01T06:09:39;8.80;99.90
2973;DHT22;1496;51.404;7.232;2023-04-01T06:18:35;8.80;99.90
2973;DHT22;1496;51.404;7.232;2023-04-01T06:29:42;8.80;99.90
2973;DHT22;1496;51.404;7.232;2023-04-01T06:32:34;8.80;99.90
2973;DHT22;1496;51.404;7.232;2023-04-01T06:50:56;8.80;99.90
2973;DHT22;1496;51.404;7.232;2023-04-01T06:59:55;8.90;99.90
2973;DHT22;1496;51.404;7.232;2023-04-01T07:02:54;8.90;99.90
2973;DHT22;1496;51.404;7.232;2023-04-01T07:05:25;8.80;99.90
2973;DHT22;1496;51.404;7.232;2023-04-01T07:07:59;8.80;99.90
2973;DHT22;1496;51.404;7.232;2023-04-01T07:10:41;8.90;99.90
2973;DHT22;1496;51.404;7.232;2023-04-01T07:16:49;8.90;99.90
2973;DHT22;1496;51.404;7.232;2023-04-01T07:19:35;8.90;99.90
2973;DHT22;1496;51.404;7.232;2023-04-01T07:25:46;8.90;99.90
2973;DHT22;1496;51.404;7.232;2023-04-01T07:28:43;9.00;99.90
2973;DHT22;1496;51.404;7.232;2023-04-01T07:37:46;9.00;99.90
2973;DHT22;1496;51.404;7.232;2023-04-01T07:40:26;9.10;99.90
2973;DHT22;1496;51.404;7.232;2023-04-01T07:48:49;9.10;99.90
2973;DHT22;1496;51.404;7.232;2023-04-01T07:51:27;9.00;99.90
2973;DHT22;1496;51.404;7.232;2023-04-01T07:54:11;9.00;99.90
2973;DHT22;1496;51.404;7.232;2023-04-01T07:56:49;9.00;99.90
2973;DHT22;1496;51.404;7.232;2023-04-01T08:05:26;9.10;99.90
2973;DHT22;1496;51.404;7.232;2023-04-01T08:08:52;9.20;99.90
2973;DHT22;1496;51.404;7.232;2023-04-01T08:11:59;9.20;99.90
2973;DHT22;1496;51.404;7.232;2023-04-01T08:20:51;9.10;99.90
2973;DHT22;1496;51.404;7.232;2023-04-01T08:23:27;9.10;99.90
2973;DHT22;1496;51.404;7.232;2023-04-01T08:26:02;9.00;99.90
2973;DHT22;1496;51.404;7.232;2023-04-01T08:28:43;9.00;99.90
2973;DHT22;1496;51.404;7.232;2023-04-01T08:31:25;9.10;99.90
2973;DHT22;1496;51.404;7.232;2023-04-01T08:33:55;9.00;99.90
2973;DHT22;1496;51.404;7.232;2023-04-01T08:36:33;9.10;99.90
2973;DHT22;1496;51.404;7.232;2023-04-01T08:39:15;9.10;99.90
2973;DHT22;1496;51.404;7.232;2023-04-01T08:47:59;9.10;99.90
2973;DHT22;1496;51.404;7.232;2023-04-01T08:50:51;9.10;99.90
2973;DHT22;1496;51.404;7.232;2023-04-01T08:59:25;9.00;99.90
2973;DHT22;1496;51.404;7.232;2023-04-01T09:14:35;9.10;99.90
2973;DHT22;1496;51.404;7.232;2023-04-01T09:23:10;9.10;99.90
2973;DHT22;1496;51.404;7.232;2023-04-01T09:26:00;9.10;99.90
2973;DHT22;1496;51.404;7.232;2023-04-01T09:28:43;9.10;99.90
2973;DHT22;1496;51.404;7.232;2023-04-01T09:31:32;9.10;99.90
2973;DHT22;1496;51.404;7.232;2023-04-01T09:35:03;9.10;99.90
2973;DHT22;1496;51.404;7.232;2023-04-01T09:48:31;9.10;99.90
2973;DHT22;1496;51.404;7.232;2023-04-01T09:51:31;9.20;99.90
2973;DHT22;1496;51.404;7.232;2023-04-01T10:08:36;9.30;99.90
2973;DHT22;1496;51.404;7.232;2023-04-01T10:11:54;9.30;99.90
2973;DHT22;1496;51.404;7.232;2023-04-01T10:29:58;9.70;99.90
2973;DHT22;1496;51.404;7.232;2023-04-01T10:58:38;9.70;99.90
2973;DHT22;1496;51.404;7.232;2023-04-01T11:01:47;9.60;99.90
2973;DHT22;1496;51.404;7.232;2023-04-01T11:22:48;9.60;99.90
2973;DHT22;1496;51.404;7.232;2023-04-01T11:41:15;9.50;99.90
2973;DHT22;1496;51.404;7.232;2023-04-01T11:55:54;9.50;99.90
2973;DHT22;1496;51.404;7.232;2023-04-01T12:01:51;9.80;99.90
2973;DHT22;1496;51.404;7.232;2023-04-01T12:07:27;9.70;99.90
2973;DHT22;1496;51.404;7.232;2023-04-01T12:10:05;9.60;99.90
2973;DHT22;1496;51.404;7.232;2023-04-01T12:12:54;9.70;99.90
2973;DHT22;1496;51.404;7.232;2023-04-01T12:18:41;9.80;99.90
2973;DHT22;1496;51.404;7.232;2023-04-01T12:24:44;9.70;99.90
2973;DHT22;1496;51.404;7.232;2023-04-01T12:27:29;9.70;99.90
2973;DHT22;1496;51.404;7.232;2023-04-01T12:30:52;9.60;99.90
2973;DHT22;1496;51.404;7.232;2023-04-01T12:39:32;9.70;99.90
2973;DHT22;1496;51.404;7.232;2023-04-01T12:48:50;9.60;99.90
2973;DHT22;1496;51.404;7.232;2023-04-01T12:56:32;9.60;99.90
2973;DHT22;1496;51.404;7.232;2023-04-01T13:05:21;9.50;99.90
2973;DHT22;1496;51.404;7.232;2023-04-01T13:08:20;9.60;99.90
2973;DHT22;1496;51.404;7.232;2023-04-01T13:11:09;9.50;99.90
2973;DHT22;1496;51.404;7.232;2023-04-01T13:16:26;9.50;99.90
2973;DHT22;1496;51.404;7.232;2023-04-01T13:19:09;9.50;99.90
2973;DHT22;1496;51.404;7.232;2023-04-01T13:24:50;9.70;99.90
2973;DHT22;1496;51.404;7.232;2023-04-01T13:30:22;9.70;99.90
2973;DHT22;1496;51.404;7.232;2023-04-01T13:33:04;9.70;99.90
2973;DHT22;1496;51.404;7.232;2023-04-01T13:41:06;9.70;99.90
2973;DHT22;1496;51.404;7.232;2023-04-01T13:44:16;9.60;99.90
2973;DHT22;1496;51.404;7.232;2023-04-01T13:58:31;9.70;99.90
2973;DHT22;1496;51.404;7.232;2023-04-01T14:01:13;9.60;99.90
2973;DHT22;1496;51.404;7.232;2023-04-01T14:09:08;9.50;99.90
2973;DHT22;1496;51.404;7.232;2023-04-01T14:15:18;9.50;99.90
2973;DHT22;1496;51.404;7.232;2023-04-01T14:17:46;9.50;99.90
2973;DHT22;1496;51.404;7.232;2023-04-01T14:31:53;9.40;99.90
2973;DHT22;1496;51.404;7.232;2023-04-01T14:34:47;9.40;99.90
2973;DHT22;1496;51.404;7.232;2023-04-01T14:37:48;9.40;99.90
2973;DHT22;1496;51.404;7.232;2023-04-01T14:40:33;9.40;99.90
2973;DHT22;1496;51.404;7.232;2023-04-01T14:43:25;9.50;99.90
2973;DHT22;1496;51.404;7.232;2023-04-01T14:51:48;9.50;99.90
2973;DHT22;1496;51.404;7.232;2023-04-01T14:54:36;9.40;99.90
2973;DHT22;1496;51.404;7.232;2023-04-01T14:59:51;9.40;99.90
2973;DHT22;1496;51.404;7.232;2023-04-01T15:14:34;9.40;99.90
2973;DHT22;1496;51.404;7.232;2023-04-01T15:17:42;9.40;99.90
2973;DHT22;1496;51.404;7.232;2023-04-01T15:23:50;9.50;99.90
2973;DHT22;1496;51.404;7.232;2023-04-01T15:27:02;9.40;99.90
2973;DHT22;1496;51.404;7.232;2023-04-01T15:35:24;9.50;99.90
2973;DHT22;1496;51.404;7.232;2023-04-01T15:38:15;9.50;99.90
2973;DHT22;1496;51.404;7.232;2023-04-01T15:41:11;9.50;99.90
2973;DHT22;1496;51.404;7.232;2023-04-01T15:43:46;9.50;99.90
2973;DHT22;1496;51.404;7.232;2023-04-01T15:49:43;9.50;99.90
2973;DHT22;1496;51.404;7.232;2023-04-01T15:52:23;9.50;99.90
2973;DHT22;1496;51.404;7.232;2023-04-01T15:55:07;9.60;99.90
2973;DHT22;1496;51.404;7.232;2023-04-01T16:00:29;9.50;99.90
2973;DHT22;1496;51.404;7.232;2023-04-01T16:13:54;9.50;99.90
2973;DHT22;1496;51.404;7.232;2023-04-01T16:19:46;9.50;99.90
2973;DHT22;1496;51.404;7.232;2023-04-01T16:22:38;9.40;99.90
2973;DHT22;1496;51.404;7.232;2023-04-01T16:25:26;9.50;99.90
2973;DHT22;1496;51.404;7.232;2023-04-01T16:28:28;9.50;99.90
2973;DHT22;1496;51.404;7.232;2023-04-01T16:34:14;9.40;99.90
2973;DHT22;1496;51.404;7.232;2023-04-01T16:37:07;9.50;99.90
2973;DHT22;1496;51.404;7.232;2023-04-01T16:42:43;9.50;99.90
2973;DHT22;1496;51.404;7.232;2023-04-01T16:45:38;9.40;99.90
2973;DHT22;1496;51.404;7.232;2023-04-01T16:49:13;9.50;99.90
2973;DHT22;1496;51.404;7.232;2023-04-01T16:51:17;9.50;99.90
2973;DHT22;1496;51.404;7.232;2023-04-01T16:53:47;9.50;99.90
2973;DHT22;1496;51.404;7.232;2023-04-01T16:56:24;9.40;99.90
2973;DHT22;1496;51.404;7.232;2023-04-01T16:59:17;9.40;99.90
2973;DHT22;1496;51.404;7.232;2023-04-01T17:02:08;9.50;99.90
2973;DHT22;1496;51.404;7.232;2023-04-01T17:04:47;9.50;99.90
2973;DHT22;1496;51.404;7.232;2023-04-01T17:07:33;9.50;99.90
2973;DHT22;1496;51.404;7.232;2023-04-01T17:15:25;9.50;99.90
2973;DHT22;1496;51.404;7.232;2023-04-01T17:18:07;9.40;99.90
2973;DHT22;1496;51.404;7.232;2023-04-01T17:20:50;9.40;99.90
2973;DHT22;1496;51.404;7.232;2023-04-01T17:23:38;9.40;99.90
2973;DHT22;1496;51.404;7.232;2023-04-01T17:26:49;9.40;99.90
2973;DHT22;1496;51.404;7.232;2023-04-01T17:35:27;9.40;99.90
2973;DHT22;1496;51.404;7.232;2023-04-01T17:43:43;9.40;99.90
2973;DHT22;1496;51.404;7.232;2023-04-01T17:49:02;9.40;99.90
2973;DHT22;1496;51.404;7.232;2023-04-01T17:51:48;9.40;99.90
2973;DHT22;1496;51.404;7.232;2023-04-01T17:57:36;9.40;99.90
2973;DHT22;1496;51.404;7.232;2023-04-01T18:00:18;9.40;99.90
2973;DHT22;1496;51.404;7.232;2023-04-01T18:09:42;9.40;99.90
2973;DHT22;1496;51.404;7.232;2023-04-01T18:18:07;9.30;99.90
2973;DHT22;1496;51.404;7.232;2023-04-01T18:23:32;9.40;99.90
2973;DHT22;1496;51.404;7.232;2023-04-01T18:26:10;9.30;99.90
2973;DHT22;1496;51.404;7.232;2023-04-01T18:28:47;9.40;99.90
2973;DHT22;1496;51.404;7.232;2023-04-01T18:31:22;9.40;99.90
2973;DHT22;1496;51.404;7.232;2023-04-01T18:34:10;9.40;99.90
2973;DHT22;1496;51.404;7.232;2023-04-01T18:36:49;9.40;99.90
2973;DHT22;1496;51.404;7.232;2023-04-01T18:39:40;9.40;99.90
2973;DHT22;1496;51.404;7.232;2023-04-01T18:45:32;9.30;99.90
2973;DHT22;1496;51.404;7.232;2023-04-01T18:48:29;9.30;99.90
2973;DHT22;1496;51.404;7.232;2023-04-01T18:51:02;9.40;99.90
2973;DHT22;1496;51.404;7.232;2023-04-01T18:56:35;9.30;99.90
2973;DHT22;1496;51.404;7.232;2023-04-01T18:59:18;9.30;99.90
2973;DHT22;1496;51.404;7.232;2023-04-01T19:02:13;9.30;99.90
2973;DHT22;1496;51.404;7.232;2023-04-01T19:04:49;9.30;99.90
2973;DHT22;1496;51.404;7.232;2023-04-01T19:10:17;9.30;99.90
2973;DHT22;1496;51.404;7.232;2023-04-01T19:13:02;9.30;99.90
2973;DHT22;1496;51.404;7.232;2023-04-01T19:27:29;9.30;99.90
2973;DHT22;1496;51.404;7.232;2023-04-01T19:32:42;9.30;99.90
2973;DHT22;1496;51.404;7.232;2023-04-01T19:40:48;9.20;99.90
2973;DHT22;1496;51.404;7.232;2023-04-01T19:49:19;9.20;99.90
2973;DHT22;1496;51.404;7.232;2023-04-01T19:51:50;9.20;99.90
2973;DHT22;1496;51.404;7.232;2023-04-01T19:57:05;9.20;99.90
2973;DHT22;1496;51.404;7.232;2023-04-01T20:04:44;9.30;99.90
2973;DHT22;1496;51.404;7.232;2023-04-01T20:09:58;9.50;99.90
2973;DHT22;1496;51.404;7.232;2023-04-01T20:17:54;9.50;99.90
2973;DHT22;1496;51.404;7.232;2023-04-01T20:20:28;9.50;99.90
2973;DHT22;1496;51.404;7.232;2023-04-01T20:25:56;9.40;99.90
2973;DHT22;1496;51.404;7.232;2023-04-01T20:28:43;9.40;99.90
2973;DHT22;1496;51.404;7.232;2023-04-01T20:31:42;9.30;99.90
2973;DHT22;1496;51.404;7.232;2023-04-01T20:46:30;9.20;99.90
2973;DHT22;1496;51.404;7.232;2023-04-01T20:49:30;9.20;99.90
2973;DHT22;1496;51.404;7.232;2023-04-01T20:52:22;9.20;99.90
2973;DHT22;1496;51.404;7.232;2023-04-01T20:55:27;9.20;99.90
2973;DHT22;1496;51.404;7.232;2023-04-01T20:58:13;9.20;99.90
2973;DHT22;1496;51.404;7.232;2023-04-01T21:22:56;9.00;99.90
2973;DHT22;1496;51.404;7.232;2023-04-01T21:25:50;8.90;99.90
2973;DHT22;1496;51.404;7.232;2023-04-01T21:28:28;8.80;99.90
2973;DHT22;1496;51.404;7.232;2023-04-01T21:37:19;8.70;99.90
2973;DHT22;1496;51.404;7.232;2023-04-01T21:48:05;8.60;99.90
2973;DHT22;1496;51.404;7.232;2023-04-01T22:00:00;8.40;99.90
2973;DHT22;1496;51.404;7.232;2023-04-01T22:03:15;8.30;99.90
2973;DHT22;1496;51.404;7.232;2023-04-01T22:05:49;8.30;99.90
2973;DHT22;1496;51.404;7.232;2023-04-01T22:13:56;8.10;99.90
2973;DHT22;1496;51.404;7.232;2023-04-01T22:17:20;8.10;99.90
2973;DHT22;1496;51.404;7.232;2023-04-01T22:25:39;8.10;99.90
2973;DHT22;1496;51.404;7.232;2023-04-01T22:28:21;8.00;99.90
2973;DHT22;1496;51.404;7.232;2023-04-01T22:30:52;8.00;99.90
2973;DHT22;1496;51.404;7.232;2023-04-01T22:33:35;8.00;99.90
2973;DHT22;1496;51.404;7.232;2023-04-01T22:36:18;7.90;99.90
2973;DHT22;1496;51.404;7.232;2023-04-01T22:47:02;7.80;99.90
2973;DHT22;1496;51.404;7.232;2023-04-01T22:49:41;7.70;99.90
2973;DHT22;1496;51.404;7.232;2023-04-01T22:52:26;7.70;99.90
2973;DHT22;1496;51.404;7.232;2023-04-01T22:55:08;7.60;99.90
2973;DHT22;1496;51.404;7.232;2023-04-01T22:58:03;7.60;99.90
2973;DHT22;1496;51.404;7.232;2023-04-01T23:00:55;7.70;99.90
2973;DHT22;1496;51.404;7.232;2023-04-01T23:03:31;7.60;99.90
2973;DHT22;1496;51.404;7.232;2023-04-01T23:06:00;7.60;99.90
2973;DHT22;1496;51.404;7.232;2023-04-01T23:11:46;7.50;99.90
2973;DHT22;1496;51.404;7.232;2023-04-01T23:17:39;7.40;99.90
2973;DHT22;1496;51.404;7.232;2023-04-01T23:20:11;7.40;99.90
2973;DHT22;1496;51.404;7.232;2023-04-01T23:23:26;7.40;99.90
2973;DHT22;1496;51.404;7.232;2023-04-01T23:26:18;7.30;99.90
2973;DHT22;1496;51.404;7.232;2023-04-01T23:28:57;7.20;99.90
2973;DHT22;1496;51.404;7.232;2023-04-01T23:31:38;7.20;99.90
2973;DHT22;1496;51.404;7.232;2023-04-01T23:37:11;7.10;99.90
2973;DHT22;1496;51.404;7.232;2023-04-01T23:39:48;7.10;99.90
2973;DHT22;1496;51.404;7.232;2023-04-01T23:42:23;7.10;99.90
2973;DHT22;1496;51.404;7.232;2023-04-01T23:44:59;7.00;99.90
2973;DHT22;1496;51.404;7.232;2023-04-01T23:47:47;7.00;99.90
2973;DHT22;1496;51.404;7.232;2023-04-01T23:50:22;7.10;99.90
2973;DHT22;1496;51.404;7.232;2023-04-01T23:53:02;7.10;99.90
2973;DHT22;1496;51.404;7.232;2023-04-01T23:55:34;7.00;99.90
2973;DHT22;1496;51.404;7.232;2023-04-01T23:58:24;7.10;99.90
